Latest Weather Observations for Rockhampton

IDQ60801

Issued at 4:32 am EST Monday 20 February 2017 (issued every 30 minutes, with the page automatically refreshed every 10 minutes)

About weather observations | Map of weather stations | Latest weather observations for QLD | Other Formats
Station Details ID: 039083 Name: ROCKHAMPTON AERO Lat: -23.38 Lon: 150.48 Height: 10.4 m
Data from the previous 72 hours. | See also: Recent months at Rockhampton
Date/Time
EST
Temp
°C
App
Temp
°C
Dew
Point
°C
Rel
Hum
%
Delta-T
°C
Wind Press
QNH
hPa
Press
MSL
hPa
Rain since
9am
mm
Dir  Spd
km/h
Gust
km/h
Spd
kts
Gust
kts
20/04:00am 24.0 27.0 21.9 88 1.4 W 9 13 5 7 1008.8 1008.7 8.4
20/03:30am 24.1 27.7 22.0 88 1.4 W 6 9 3 5 1008.4 1008.3 8.4
20/03:00am 24.5 27.5 22.0 86 1.7 WSW 9 13 5 7 1008.6 1008.5 8.4
20/02:30am 24.7 28.3 23.1 91 1.1 WSW 9 11 5 6 1008.7 1008.6 8.4
20/02:00am 25.1 28.1 22.7 86 1.6 SW 11 17 6 9 1008.9 1008.8 8.4
20/01:30am 25.0 27.9 23.1 89 1.3 WSW 13 17 7 9 1009.1 1009.0 8.4
20/01:00am 24.8 29.3 23.0 90 1.2 SW 4 6 2 3 1009.2 1009.1 8.4
20/12:30am 24.9 28.9 23.1 90 1.2 WSW 7 9 4 5 1009.4 1009.3 8.4
20/12:00am 25.0 30.3 23.1 89 1.3 CALM 0 0 0 0 1009.2 1009.1 8.4
 
Date/Time
EST
Temp
°C
App
Temp
°C
Dew
Point
°C
Rel
Hum
%
Delta-T
°C
Wind Press
QNH
hPa
Press
MSL
hPa
Rain since
9am
mm
Dir  Spd
km/h
Gust
km/h
Spd
kts
Gust
kts
19/11:30pm 24.9 28.8 23.0 89 1.3 NW 7 9 4 5 1009.2 1009.1 8.4
19/11:00pm 25.1 30.3 22.9 87 1.5 CALM 0 0 0 0 1009.4 1009.3 8.4
19/10:30pm 25.1 30.2 22.6 86 1.7 CALM 0 0 0 0 1009.5 1009.4 8.4
19/10:00pm 25.0 29.8 22.2 84 1.9 CALM 0 0 0 0 1009.5 1009.4 8.4
19/09:30pm 24.8 28.6 22.4 86 1.6 N 6 11 3 6 1009.7 1009.6 8.4
19/09:00pm 25.0 29.0 22.8 87 1.5 NW 6 6 3 3 1009.4 1009.3 8.4
19/08:30pm 24.9 28.9 22.8 88 1.4 WSW 6 9 3 5 1009.2 1009.1 8.4
19/08:00pm 24.7 27.6 22.5 87 1.5 W 11 15 6 8 1008.8 1008.7 8.4
19/07:30pm 24.8 28.1 22.6 87 1.5 WNW 9 13 5 7 1008.2 1008.1 8.4
19/07:00pm 24.9 28.7 22.7 87 1.5 NNW 7 9 4 5 1007.6 1007.5 8.4
19/06:30pm 24.8 28.6 22.4 86 1.6 WSW 6 7 3 4 1007.3 1007.2 8.4
19/06:00pm 25.0 27.9 23.1 89 1.3 SW 13 20 7 11 1007.5 1007.4 8.4
19/05:30pm 24.3 26.9 23.3 94 0.7 SSW 15 19 8 10 1007.5 1007.4 8.4
19/05:26pm 24.4 26.5 23.1 92 0.9 SSW 17 22 9 12 1007.5 1007.4 8.4
19/05:06pm 23.2 21.1 22.3 95 0.6 SW 37 57 20 31 1006.9 1006.8 7.2
19/05:04pm 23.1 19.9 22.5 96 0.4 SW 43 61 23 33 1007.0 1006.9 6.8
19/05:00pm 23.5 20.3 22.8 96 0.5 SW 44 61 24 33 1006.9 1006.8 3.8
19/04:57pm 23.7 20.7 22.8 95 0.6 SW 43 61 23 33 1006.7 1006.6 1.0
19/04:47pm 26.9 23.9 20.7 69 4.1 WSW 37 56 20 30 1006.5 1006.4 0.0
19/04:46pm 27.2 24.5 21.2 69 4.0 WSW 37 54 20 29 1006.5 1006.4 0.0
19/04:30pm 30.8 30.1 20.2 53 7.0 N 24 39 13 21 1006.0 1005.9 0.0
19/04:00pm 32.6 31.0 20.1 47 8.3 NNE 28 39 15 21 1004.5 1004.4 0.0
19/03:30pm 33.2 32.2 20.5 47 8.5 NNE 26 35 14 19 1004.8 1004.7 0.0
19/03:00pm 35.0 37.2 19.5 40 10.3 NNW 7 19 4 10 1005.0 1004.9 0.0
19/02:30pm 35.5 35.6 17.4 34 11.7 N 13 22 7 12 1005.3 1005.2 0.0
19/02:00pm 34.7 36.3 18.3 38 10.7 SSW 7 15 4 8 1005.9 1005.8 0.0
19/01:30pm 33.7 34.5 17.4 37 10.5 N 9 19 5 10 1006.4 1006.3 0.0
19/01:00pm 34.7 34.8 17.5 36 11.1 NNW 13 22 7 12 1006.9 1006.8 0.0
19/12:30pm 33.8 34.2 17.3 37 10.6 NW 11 24 6 13 1007.4 1007.3 0.0
19/12:00pm 34.2 35.0 17.2 36 10.9 N 9 19 5 10 1007.8 1007.7 0.0
19/11:30am 32.9 32.2 16.5 37 10.4 NE 15 28 8 15 1008.2 1008.1 0.0
19/11:00am 33.8 33.9 16.5 35 11.0 ENE 11 20 6 11 1008.6 1008.5 0.0
19/10:30am 32.1 32.5 17.2 41 9.5 NW 11 22 6 12 1009.0 1008.9 0.0
19/10:00am 31.8 32.5 18.0 43 8.9 E 11 22 6 12 1009.4 1009.3 0.0
19/09:30am 31.1 31.4 18.0 45 8.4 ENE 13 20 7 11 1009.6 1009.5 0.0
19/09:00am 29.8 31.1 19.4 53 6.8 N 11 19 6 10 1009.7 1009.6 0.0
19/08:30am 29.2 29.7 19.2 54 6.5 N 15 22 8 12 1009.4 1009.3 0.0
19/08:00am 27.8 27.8 19.8 61 5.2 NNE 19 28 10 15 1009.2 1009.1 0.0
19/07:30am 27.6 28.8 20.0 63 5.0 NNE 13 22 7 12 1009.1 1009.0 0.0
19/07:00am 25.6 29.5 20.4 73 3.4 CALM 0 7 0 4 1009.0 1008.9 0.0
19/06:30am 23.5 25.5 19.9 80 2.3 SSW 9 9 5 5 1008.9 1008.8 0.0
19/06:00am 23.9 26.5 20.0 79 2.5 NE 6 7 3 4 1008.6 1008.5 0.0
19/05:30am 23.5 25.6 20.1 81 2.2 NNE 9 11 5 6 1008.5 1008.4 0.0
19/05:00am 24.0 26.0 20.0 78 2.6 NE 9 9 5 5 1008.6 1008.5 0.0
19/04:30am 24.6 27.0 20.0 75 3.0 NE 7 9 4 5 1008.6 1008.5 0.0
19/04:00am 24.7 27.4 20.7 78 2.6 NE 7 11 4 6 1008.7 1008.6 0.0
19/03:30am 24.6 26.8 19.5 73 3.3 ENE 7 9 4 5 1008.9 1008.8 0.0
19/03:00am 24.6 27.0 20.0 75 3.0 ENE 7 11 4 6 1009.2 1009.1 0.0
19/02:30am 24.3 26.7 20.1 77 2.7 E 7 9 4 5 1009.3 1009.2 0.0
19/02:00am 24.0 28.0 20.5 81 2.3 CALM 0 0 0 0 1009.6 1009.5 0.0
19/01:30am 24.5 26.1 19.2 72 3.4 SSW 9 15 5 8 1010.0 1009.9 0.0
19/01:00am 24.3 25.1 19.0 72 3.4 SW 13 19 7 10 1010.2 1010.1 0.0
19/12:30am 24.6 26.3 19.3 72 3.4 NNE 9 9 5 5 1009.4 1009.3 0.0
19/12:00am 24.9 26.8 19.0 69 3.8 N 7 9 4 5 1009.5 1009.4 0.0
 
Date/Time
EST
Temp
°C
App
Temp
°C
Dew
Point
°C
Rel
Hum
%
Delta-T
°C
Wind Press
QNH
hPa
Press
MSL
hPa
Rain since
9am
mm
Dir  Spd
km/h
Gust
km/h
Spd
kts
Gust
kts
18/11:30pm 24.8 26.4 19.2 71 3.6 NNE 9 11 5 6 1009.8 1009.7 0.0
18/11:00pm 25.2 25.9 18.9 68 4.0 N 13 15 7 8 1009.8 1009.7 0.0
18/10:30pm 25.6 26.0 18.9 66 4.3 NNE 15 17 8 9 1009.9 1009.8 0.0
18/10:00pm 25.9 26.2 19.6 68 4.1 NNE 17 22 9 12 1009.8 1009.7 0.0
18/09:30pm 26.2 26.7 20.1 69 4.0 NNE 17 24 9 13 1009.5 1009.4 0.0
18/09:00pm 26.5 26.1 18.9 63 4.9 NNE 19 26 10 14 1009.4 1009.3 0.0
18/08:30pm 26.7 27.3 21.0 71 3.8 NNE 19 24 10 13 1009.2 1009.1 0.0
18/08:00pm 27.2 27.5 20.7 67 4.3 NNE 20 26 11 14 1008.9 1008.8 0.0
18/07:30pm 27.5 27.5 20.2 64 4.8 NNE 20 26 11 14 1008.3 1008.2 0.0
18/07:00pm 27.8 27.6 18.6 57 5.9 NNE 17 24 9 13 1007.9 1007.8 0.0
18/06:30pm 28.2 26.5 18.2 54 6.4 NNE 24 32 13 17 1007.4 1007.3 0.0
18/06:00pm 29.7 28.7 18.0 49 7.5 NNE 20 26 11 14 1007.2 1007.1 0.0
18/05:30pm 32.1 30.6 16.2 38 10.0 NE 19 26 10 14 1007.0 1006.9 0.0
18/05:00pm 33.0 31.8 17.0 38 10.2 NNE 19 26 10 14 1007.1 1007.0 0.0
18/04:30pm 33.3 31.8 16.4 36 10.7 NNE 19 26 10 14 1007.2 1007.1 0.0
18/04:00pm 34.0 32.8 17.0 36 10.9 NE 19 26 10 14 1007.4 1007.3 0.0
18/03:30pm 34.2 33.4 17.2 36 10.9 NNE 17 26 9 14 1007.6 1007.5 0.0
18/03:00pm 34.0 33.7 17.4 37 10.7 NE 15 22 8 12 1008.0 1007.9 0.0
18/02:30pm 33.9 33.4 17.8 38 10.4 N 17 28 9 15 1008.4 1008.3 0.0
18/02:00pm 33.8 34.1 17.9 38 10.3 ENE 13 19 7 10 1008.7 1008.6 0.0
18/01:30pm 35.1 35.4 18.0 36 11.1 ENE 13 24 7 13 1009.2 1009.1 0.0
18/01:00pm 33.4 34.5 17.9 39 10.0 ENE 9 20 5 11 1009.8 1009.7 0.0
18/12:30pm 32.9 33.6 18.0 41 9.6 ENE 11 19 6 10 1010.2 1010.1 0.0
18/12:00pm 34.0 34.9 18.5 40 10.1 ENE 11 20 6 11 1010.8 1010.7 0.0
18/11:30am 32.3 33.1 18.2 43 9.1 E 11 17 6 9 1011.4 1011.3 0.0
18/11:00am 31.4 33.1 19.3 48 7.9 NNE 9 20 5 11 1011.8 1011.7 0.0
18/10:30am 30.6 31.6 19.4 51 7.3 ENE 13 20 7 11 1012.4 1012.3 0.0
18/10:00am 29.4 31.0 19.2 54 6.6 E 9 15 5 8 1012.6 1012.5 0.0
18/09:30am 28.8 31.3 19.8 58 5.9 NE 6 13 3 7 1013.0 1012.9 0.0
18/09:00am 27.9 30.2 19.8 61 5.3 WNW 7 11 4 6 1013.1 1013.0 0.0
18/08:30am 27.8 30.3 19.8 61 5.2 S 6 11 3 6 1013.2 1013.1 0.0
18/08:00am 26.2 28.5 19.9 68 4.1 SSE 7 13 4 7 1013.2 1013.1 0.0
18/07:30am 25.7 28.2 20.2 71 3.6 E 7 11 4 6 1013.0 1012.9 0.0
18/07:00am 24.6 27.1 20.3 77 2.8 SE 7 9 4 5 1012.7 1012.6 0.0
18/06:30am 23.1 26.7 20.5 85 1.7 SW 2 6 1 3 1012.5 1012.4 0.0
18/06:00am 22.3 25.3 20.0 87 1.5 SW 4 6 2 3 1012.2 1012.1 0.0
18/05:30am 22.3 24.8 19.8 86 1.6 SW 6 7 3 4 1012.0 1011.9 0.0
18/05:00am 22.8 26.5 20.0 84 1.8 CALM 0 0 0 0 1011.5 1011.4 0.0
18/04:30am 22.8 26.2 20.2 85 1.7 ESE 2 7 1 4 1011.3 1011.2 0.0
18/04:00am 22.7 26.5 20.1 85 1.7 CALM 0 0 0 0 1011.1 1011.0 0.0
18/03:30am 22.9 26.7 20.1 84 1.8 CALM 0 0 0 0 1011.3 1011.2 0.0
18/03:00am 23.2 27.1 20.3 84 1.9 CALM 0 0 0 0 1011.3 1011.2 0.0
18/02:30am 23.4 27.4 20.5 84 1.9 CALM 0 0 0 0 1011.3 1011.2 0.0
18/02:00am 23.4 27.4 20.5 84 1.9 CALM 0 0 0 0 1011.5 1011.4 0.0
18/01:30am 23.7 27.5 20.1 80 2.3 CALM 0 0 0 0 1011.8 1011.7 0.0
18/01:00am 23.9 27.7 20.2 80 2.4 CALM 0 0 0 0 1012.3 1012.2 0.0
18/12:30am 24.3 28.1 20.1 77 2.7 CALM 0 0 0 0 1012.6 1012.5 0.0
18/12:00am 24.3 26.8 19.8 76 2.9 N 6 7 3 4 1013.0 1012.9 0.0
 
Date/Time
EST
Temp
°C
App
Temp
°C
Dew
Point
°C
Rel
Hum
%
Delta-T
°C
Wind Press
QNH
hPa
Press
MSL
hPa
Rain since
9am
mm
Dir  Spd
km/h
Gust
km/h
Spd
kts
Gust
kts
17/11:30pm 24.9 27.5 20.0 74 3.2 N 6 7 3 4 1013.2 1013.1 0.0
17/11:00pm 24.7 26.8 20.1 75 3.0 NNE 9 11 5 6 1013.3 1013.2 0.0
17/10:30pm 25.1 27.3 20.3 74 3.1 NE 9 11 5 6 1013.5 1013.4 0.0
17/10:00pm 25.1 27.5 20.8 77 2.8 N 9 11 5 6 1013.7 1013.6 0.0
17/09:30pm 25.5 27.6 20.9 75 3.0 N 11 13 6 7 1013.5 1013.4 0.0
17/09:00pm 25.9 27.9 20.7 73 3.4 N 11 17 6 9 1013.2 1013.1 0.0
17/08:30pm 26.3 27.2 20.8 71 3.6 NNE 17 22 9 12 1012.8 1012.7 0.0
17/08:00pm 26.5 28.2 21.7 75 3.2 NE 15 20 8 11 1012.3 1012.2 0.0
17/07:30pm 26.8 26.5 19.2 63 4.9 NE 19 24 10 13 1012.0 1011.9 0.0
17/07:00pm 27.2 26.3 19.1 61 5.2 NNE 22 30 12 16 1011.9 1011.8 0.0
17/06:30pm 27.9 26.8 18.7 57 5.9 NNE 22 32 12 17 1011.5 1011.4 0.0
17/06:00pm 29.5 28.5 18.8 52 6.9 NNE 22 30 12 16 1011.2 1011.1 0.0
17/05:30pm 30.7 29.4 19.0 49 7.6 NNE 24 32 13 17 1011.0 1010.9 0.0
17/05:00pm 31.7 30.4 19.0 47 8.3 NNE 24 32 13 17 1010.9 1010.8 0.0
17/04:30pm 32.4 32.3 18.7 44 8.9 NNE 17 32 9 17 1010.8 1010.7 0.0
17/04:00pm 33.7 34.1 18.1 39 10.1 ENE 13 20 7 11 1010.7 1010.6 0.0
17/03:30pm 32.8 32.2 17.5 40 9.8 E 17 24 9 13 1011.0 1010.9 0.0
17/03:00pm 33.4 33.4 17.1 37 10.4 E 13 22 7 12 1011.2 1011.1 0.0
17/02:30pm 33.6 32.9 17.4 38 10.4 ENE 17 24 9 13 1011.4 1011.3 0.0
17/02:00pm 33.1 32.2 16.9 38 10.3 E 17 24 9 13 1011.8 1011.7 0.0
17/01:30pm 33.1 32.2 16.9 38 10.3 ESE 17 28 9 15 1012.1 1012.0 0.0
17/01:00pm 33.5 33.1 17.2 37 10.4 SE 15 24 8 13 1012.4 1012.3 0.0
17/12:30pm 33.2 32.8 18.0 40 9.8 E 17 28 9 15 1012.8 1012.7 0.0
17/12:00pm 32.7 32.3 18.0 41 9.5 ESE 17 26 9 14 1013.2 1013.1 0.0
17/11:30am 32.0 32.3 17.8 42 9.1 ESE 13 28 7 15 1013.7 1013.6 0.0
17/11:00am 31.7 31.4 18.2 44 8.7 E 17 26 9 14 1014.0 1013.9 0.0
17/10:30am 30.8 30.8 18.2 47 8.1 SSE 15 24 8 13 1014.2 1014.1 0.0
17/10:00am 30.1 31.2 18.8 50 7.3 ESE 11 24 6 13 1014.4 1014.3 0.0
17/09:30am 29.8 32.1 20.6 57 6.1 ESE 9 19 5 10 1014.8 1014.7 0.0
17/09:00am 28.5 30.1 19.9 59 5.6 ESE 11 19 6 10 1014.8 1014.7 0.0
17/08:30am 27.7 29.3 20.7 65 4.6 ESE 13 19 7 10 1014.5 1014.4 0.0
17/08:00am 27.0 29.0 20.8 69 4.1 ESE 11 15 6 8 1014.4 1014.3 0.0
17/07:30am 25.4 27.0 20.7 75 3.1 ESE 13 19 7 10 1014.3 1014.2 0.0
17/07:00am 24.8 26.8 20.7 78 2.7 SE 11 13 6 7 1014.1 1014.0 0.0
17/06:30am 23.7 26.6 20.6 83 2.0 SE 6 9 3 5 1013.8 1013.7 0.0
17/06:00am 22.2 26.2 20.5 90 1.1 CALM 0 6 0 3 1013.7 1013.6 0.0
17/05:30am 22.1 24.6 20.2 89 1.2 WSW 7 9 4 5 1013.7 1013.6 0.0
17/05:00am 22.7 25.4 20.2 86 1.6 SSE 6 7 3 4 1013.5 1013.4 0.0

Other Formats:

Comma delimited format used in spreadsheet applications
http://www.bom.gov.au/fwo/IDQ60801/IDQ60801.94374.axf

JavaScript Object Notation format (JSON) in row-major order
http://www.bom.gov.au/fwo/IDQ60801/IDQ60801.94374.json